Time;durP1;ratioP1;P1;durP2;ratioP2;P2;SDS_P1;SDS_P2;PMS_P1;PMS_P2;Temp;Humidity;BMP_temperature;BMP_pressure;BME280_temperature;BME280_humidity;BME280_pressure;Samples;Min_cycle;Max_cycle;Signal;HPM_P1;HPM_P2
2022/04/12 00:00:44;;;;;;;;;3.50;3.50;;;;;;;;5060864;28;51135;-48
2022/04/12 00:03:29;;;;;;;;;7.50;3.75;;;;;;;;5055276;28;51142;-47
2022/04/12 00:06:14;;;;;;;;;4.25;2.00;;;;;;;;5040343;28;51538;-46
2022/04/12 00:09:00;;;;;;;;;3.00;3.00;;;;;;;;5041803;28;51116;-50
2022/04/12 00:11:46;;;;;;;;;5.75;2.75;;;;;;;;5060718;28;51337;-49
2022/04/12 00:14:35;;;;;;;;;4.50;2.00;;;;;;;;5045079;28;51025;-45
2022/04/12 00:20:32;;;;;;;;;3.00;3.00;;;;;;;;5040205;28;51518;-49
2022/04/12 00:23:26;;;;;;;;;6.75;4.25;;;;;;;;5040174;28;51269;-47
2022/04/12 00:26:14;;;;;;;;;3.75;2.75;;;;;;;;5039828;28;51161;-47
2022/04/12 00:28:59;;;;;;;;;3.25;2.75;;;;;;;;5040144;28;51145;-47
2022/04/12 00:31:54;;;;;;;;;4.00;2.75;;;;;;;;5054906;28;51343;-47
2022/04/12 00:34:39;;;;;;;;;1.75;1.75;;;;;;;;5053389;28;51110;-46
2022/04/12 00:37:27;;;;;;;;;4.75;3.25;;;;;;;;5040035;28;51363;-45
2022/04/12 00:40:18;;;;;;;;;6.25;2.75;;;;;;;;5055052;28;51172;-46
2022/04/12 00:43:19;;;;;;;;;3.00;3.00;;;;;;;;5059538;28;51068;-47
2022/04/12 00:46:04;;;;;;;;;3.00;2.75;;;;;;;;5042831;28;51466;-47
2022/04/12 00:48:50;;;;;;;;;3.75;2.00;;;;;;;;5039818;28;51358;-47
2022/04/12 00:51:54;;;;;;;;;8.00;3.25;;;;;;;;5039614;28;51159;-47
2022/04/12 00:54:48;;;;;;;;;5.50;2.00;;;;;;;;5038918;28;51111;-47
2022/04/12 00:57:45;;;;;;;;;4.00;2.00;;;;;;;;5039362;28;52895;-48
2022/04/12 01:00:51;;;;;;;;;2.25;2.25;;;;;;;;5039593;28;51211;-49
2022/04/12 01:03:37;;;;;;;;;4.00;3.00;;;;;;;;5038504;28;51434;-49
2022/04/12 01:06:21;;;;;;;;;4.00;3.00;;;;;;;;5049692;28;51133;-47
2022/04/12 01:09:07;;;;;;;;;3.75;2.75;;;;;;;;5059318;28;51084;-48
2022/04/12 01:12:09;;;;;;;;;2.00;1.25;;;;;;;;5058325;28;51147;-47
2022/04/12 01:15:13;;;;;;;;;5.50;2.75;;;;;;;;5059488;28;51433;-49
2022/04/12 01:18:03;;;;;;;;;5.25;3.00;;;;;;;;5049563;28;51028;-50
2022/04/12 01:20:52;;;;;;;;;3.00;2.50;;;;;;;;5059746;28;51135;-47
2022/04/12 01:23:55;;;;;;;;;4.00;2.00;;;;;;;;5058993;28;51515;-48
2022/04/12 01:26:41;;;;;;;;;5.75;2.75;;;;;;;;5048380;28;51165;-47
2022/04/12 01:29:26;;;;;;;;;4.00;2.25;;;;;;;;5043128;28;51376;-49
2022/04/12 01:32:23;;;;;;;;;3.00;3.00;;;;;;;;5039067;28;51125;-46
2022/04/12 01:35:19;;;;;;;;;2.50;2.50;;;;;;;;5039510;28;51317;-47
2022/04/12 01:38:04;;;;;;;;;6.25;2.25;;;;;;;;5039084;28;51118;-46
2022/04/12 01:40:50;;;;;;;;;3.75;2.00;;;;;;;;5039196;28;51365;-48
2022/04/12 01:43:36;;;;;;;;;4.50;3.00;;;;;;;;5047291;28;51004;-47
2022/04/12 01:46:22;;;;;;;;;5.00;3.00;;;;;;;;5039383;28;51126;-47
2022/04/12 01:49:10;;;;;;;;;4.25;2.75;;;;;;;;5038870;28;51071;-46
2022/04/12 01:52:00;;;;;;;;;5.50;3.00;;;;;;;;5038752;28;51132;-50
2022/04/12 01:54:56;;;;;;;;;3.25;2.00;;;;;;;;5043015;28;51408;-48
2022/04/12 01:57:41;;;;;;;;;3.50;3.50;;;;;;;;5048617;28;51176;-47
2022/04/12 02:00:26;;;;;;;;;7.75;3.75;;;;;;;;5046710;28;51122;-45
2022/04/12 02:03:11;;;;;;;;;2.75;2.25;;;;;;;;5055542;28;51041;-47
2022/04/12 02:05:55;;;;;;;;;4.00;3.75;;;;;;;;5043663;28;51430;-46
2022/04/12 02:08:40;;;;;;;;;2.75;2.75;;;;;;;;5061900;28;51153;-47
2022/04/12 02:11:25;;;;;;;;;4.75;3.00;;;;;;;;5063312;28;51045;-45
2022/04/12 02:14:12;;;;;;;;;4.50;3.00;;;;;;;;5062548;28;51073;-45
2022/04/12 02:16:59;;;;;;;;;4.75;2.00;;;;;;;;5062808;28;51145;-46
2022/04/12 02:19:44;;;;;;;;;2.75;2.00;;;;;;;;5063001;28;51414;-48
2022/04/12 02:22:29;;;;;;;;;3.00;3.00;;;;;;;;5062574;28;51102;-49
2022/04/12 02:25:19;;;;;;;;;5.75;3.50;;;;;;;;5062832;28;51167;-48
2022/04/12 02:28:11;;;;;;;;;4.50;2.50;;;;;;;;5059688;28;51595;-48
2022/04/12 02:30:56;;;;;;;;;3.75;2.00;;;;;;;;5047008;28;50996;-47
2022/04/12 02:33:42;;;;;;;;;3.75;3.00;;;;;;;;5059865;28;51281;-45
2022/04/12 02:36:26;;;;;;;;;2.25;2.25;;;;;;;;5062403;28;51193;-46
2022/04/12 02:39:11;;;;;;;;;4.75;2.75;;;;;;;;5062395;28;51208;-46
2022/04/12 02:41:55;;;;;;;;;7.25;3.75;;;;;;;;5062163;28;51131;-49
2022/04/12 02:44:45;;;;;;;;;5.00;5.00;;;;;;;;5042429;28;51326;-47
2022/04/12 02:47:34;;;;;;;;;5.75;3.25;;;;;;;;5062105;28;51142;-48
2022/04/12 02:50:18;;;;;;;;;3.00;2.50;;;;;;;;5059202;28;51129;-47
2022/04/12 02:53:03;;;;;;;;;5.00;3.00;;;;;;;;5045277;28;51051;-46
2022/04/12 02:55:48;;;;;;;;;2.00;2.00;;;;;;;;5061943;28;51154;-46
2022/04/12 02:58:58;;;;;;;;;4.75;3.00;;;;;;;;5046492;28;51070;-46
2022/04/12 03:01:42;;;;;;;;;8.50;3.00;;;;;;;;5059566;28;51159;-50
2022/04/12 03:04:26;;;;;;;;;4.75;3.75;;;;;;;;5046854;28;51555;-46
2022/04/12 03:07:10;;;;;;;;;4.75;4.00;;;;;;;;5041394;28;51091;-46
2022/04/12 03:09:55;;;;;;;;;7.50;3.50;;;;;;;;5056168;28;51484;-48
2022/04/12 03:12:40;;;;;;;;;2.25;2.00;;;;;;;;5061631;28;51133;-48
2022/04/12 03:15:25;;;;;;;;;3.25;3.00;;;;;;;;5043848;28;51076;-49
2022/04/12 03:18:10;;;;;;;;;3.75;2.00;;;;;;;;5041352;28;51075;-47
2022/04/12 03:20:54;;;;;;;;;3.00;2.75;;;;;;;;5041466;28;51137;-50
2022/04/12 03:23:39;;;;;;;;;5.50;3.00;;;;;;;;5041368;28;51238;-49
2022/04/12 03:26:23;;;;;;;;;5.25;3.00;;;;;;;;5041499;28;51176;-47
2022/04/12 03:29:09;;;;;;;;;7.75;4.25;;;;;;;;5049401;28;50969;-48
2022/04/12 03:31:54;;;;;;;;;8.25;4.75;;;;;;;;5049936;28;51118;-46
2022/04/12 03:34:40;;;;;;;;;5.75;3.75;;;;;;;;5041144;28;51283;-46
2022/04/12 03:37:24;;;;;;;;;2.75;2.75;;;;;;;;5040716;28;51102;-47
2022/04/12 03:40:13;;;;;;;;;3.25;3.00;;;;;;;;5042632;28;51161;-46
2022/04/12 03:43:04;;;;;;;;;4.00;2.50;;;;;;;;5040821;28;51159;-45
2022/04/12 03:45:48;;;;;;;;;4.25;3.75;;;;;;;;5040993;28;51125;-45
2022/04/12 03:48:32;;;;;;;;;6.00;3.75;;;;;;;;5051944;28;51460;-47
2022/04/12 03:51:16;;;;;;;;;3.25;2.50;;;;;;;;5058439;28;51173;-51
2022/04/12 03:54:02;;;;;;;;;3.75;3.00;;;;;;;;5059493;28;53021;-47
2022/04/12 03:56:46;;;;;;;;;3.75;3.50;;;;;;;;5057352;28;51339;-48
2022/04/12 03:59:30;;;;;;;;;3.50;3.00;;;;;;;;5060885;28;51287;-48
2022/04/12 04:02:16;;;;;;;;;2.75;2.00;;;;;;;;5053492;28;51040;-47
2022/04/12 04:05:01;;;;;;;;;3.25;2.75;;;;;;;;5061099;28;51229;-48
2022/04/12 04:07:46;;;;;;;;;5.00;2.50;;;;;;;;5060361;28;51066;-46
2022/04/12 04:10:30;;;;;;;;;4.25;3.00;;;;;;;;5074164;27;51280;-47
2022/04/12 04:13:17;;;;;;;;;5.25;3.00;;;;;;;;5060337;28;51144;-47
2022/04/12 04:16:01;;;;;;;;;4.75;3.75;;;;;;;;5057631;28;51006;-46
2022/04/12 04:18:47;;;;;;;;;6.50;2.25;;;;;;;;5047633;28;51120;-46
2022/04/12 04:21:32;;;;;;;;;4.50;3.00;;;;;;;;5060203;28;51157;-46
2022/04/12 04:24:23;;;;;;;;;7.75;3.00;;;;;;;;5056432;28;51056;-47
2022/04/12 04:27:11;;;;;;;;;2.25;2.00;;;;;;;;5055710;28;51049;-51
2022/04/12 04:30:03;;;;;;;;;4.50;3.00;;;;;;;;5060347;28;50943;-49
2022/04/12 04:32:47;;;;;;;;;6.75;3.75;;;;;;;;5041523;28;51102;-47
2022/04/12 04:35:33;;;;;;;;;3.75;2.50;;;;;;;;5040098;28;51297;-47
2022/04/12 04:38:19;;;;;;;;;3.50;3.50;;;;;;;;5039486;28;51145;-47
2022/04/12 04:41:03;;;;;;;;;5.50;4.50;;;;;;;;5052977;28;51002;-48
2022/04/12 04:43:49;;;;;;;;;5.25;5.25;;;;;;;;5059866;28;51034;-45
2022/04/12 04:46:35;;;;;;;;;6.25;3.50;;;;;;;;5059825;28;51055;-47
2022/04/12 04:49:19;;;;;;;;;6.00;4.00;;;;;;;;5060034;28;51156;-48
2022/04/12 04:52:07;;;;;;;;;9.00;5.50;;;;;;;;5059622;28;51051;-50
2022/04/12 04:54:51;;;;;;;;;4.75;4.25;;;;;;;;5059634;28;51129;-46
2022/04/12 04:57:40;;;;;;;;;8.00;4.75;;;;;;;;5059742;28;51101;-48
2022/04/12 05:00:25;;;;;;;;;5.50;3.25;;;;;;;;5055852;28;51082;-48
2022/04/12 05:03:10;;;;;;;;;5.00;2.75;;;;;;;;5059439;28;51414;-49
2022/04/12 05:05:54;;;;;;;;;2.75;2.75;;;;;;;;5049102;28;51221;-45
2022/04/12 05:08:39;;;;;;;;;3.75;3.75;;;;;;;;5039154;28;51699;-47
2022/04/12 05:11:23;;;;;;;;;3.00;2.50;;;;;;;;5038993;28;51154;-49
2022/04/12 05:14:08;;;;;;;;;3.00;3.00;;;;;;;;5050749;28;51159;-46
2022/04/12 05:16:52;;;;;;;;;2.75;2.50;;;;;;;;5059671;28;51031;-46
2022/04/12 05:19:37;;;;;;;;;4.75;4.00;;;;;;;;5059085;28;51372;-46
2022/04/12 05:22:21;;;;;;;;;5.75;4.00;;;;;;;;5059341;28;50976;-47
2022/04/12 05:25:08;;;;;;;;;6.25;4.50;;;;;;;;5059270;28;50983;-45
2022/04/12 05:27:52;;;;;;;;;7.50;4.50;;;;;;;;5058483;28;51167;-46
2022/04/12 05:30:40;;;;;;;;;8.25;5.00;;;;;;;;5059742;28;51137;-46
2022/04/12 05:33:24;;;;;;;;;8.00;4.50;;;;;;;;5058913;28;51631;-48
2022/04/12 05:36:08;;;;;;;;;9.50;7.75;;;;;;;;5059200;28;51267;-49
2022/04/12 05:38:53;;;;;;;;;12.50;8.75;;;;;;;;5058634;28;51337;-48
2022/04/12 05:41:37;;;;;;;;;11.00;4.25;;;;;;;;5058168;28;51089;-48
2022/04/12 05:44:22;;;;;;;;;3.50;3.50;;;;;;;;5050938;28;51431;-48
2022/04/12 05:47:10;;;;;;;;;5.50;4.75;;;;;;;;5038883;28;51201;-48
2022/04/12 05:49:54;;;;;;;;;4.50;3.25;;;;;;;;5055802;28;51079;-46
2022/04/12 05:52:39;;;;;;;;;6.75;4.00;;;;;;;;5047872;28;51167;-47
2022/04/12 05:55:26;;;;;;;;;4.25;2.75;;;;;;;;5042288;28;51031;-46
2022/04/12 05:58:13;;;;;;;;;5.75;4.00;;;;;;;;5058488;28;51357;-47
2022/04/12 06:00:57;;;;;;;;;12.00;4.00;;;;;;;;5038890;28;51140;-43
2022/04/12 06:03:42;;;;;;;;;2.75;2.75;;;;;;;;5050672;28;51514;-45
2022/04/12 06:06:27;;;;;;;;;7.75;5.50;;;;;;;;5058955;28;51169;-45
2022/04/12 06:09:11;;;;;;;;;8.75;5.00;;;;;;;;5047122;28;50997;-48
2022/04/12 06:11:56;;;;;;;;;7.25;5.50;;;;;;;;5052454;28;51133;-45
2022/04/12 06:14:41;;;;;;;;;8.25;5.25;;;;;;;;5059604;28;51231;-45
2022/04/12 06:17:29;;;;;;;;;4.50;1.75;;;;;;;;5053166;28;51094;-44
2022/04/12 06:20:15;;;;;;;;;3.50;3.50;;;;;;;;5054753;28;51096;-46
2022/04/12 06:23:00;;;;;;;;;9.25;6.00;;;;;;;;5056018;28;51223;-49
2022/04/12 06:25:44;;;;;;;;;7.50;3.75;;;;;;;;5058974;28;51143;-47
2022/04/12 06:28:30;;;;;;;;;6.00;4.00;;;;;;;;5058779;28;51102;-45
2022/04/12 06:31:15;;;;;;;;;7.00;3.50;;;;;;;;5038652;28;51144;-47
2022/04/12 06:33:59;;;;;;;;;4.75;4.00;;;;;;;;5038661;28;51454;-46
2022/04/12 06:36:48;;;;;;;;;7.00;2.75;;;;;;;;5042962;28;51253;-46
2022/04/12 06:39:33;;;;;;;;;6.50;4.25;;;;;;;;5049470;28;51128;-44
2022/04/12 06:42:17;;;;;;;;;7.25;4.75;;;;;;;;5041834;28;51181;-44
2022/04/12 06:45:02;;;;;;;;;7.00;6.00;;;;;;;;5050466;28;51133;-46
2022/04/12 06:47:56;;;;;;;;;7.75;6.00;;;;;;;;5057019;28;51549;-46
2022/04/12 06:50:40;;;;;;;;;7.25;6.00;;;;;;;;5059140;28;51099;-48
2022/04/12 06:53:25;;;;;;;;;10.75;6.25;;;;;;;;5062166;28;50967;-47
2022/04/12 06:56:11;;;;;;;;;7.25;5.00;;;;;;;;5045912;28;51100;-44
2022/04/12 06:58:57;;;;;;;;;20.25;17.25;;;;;;;;5041381;28;51082;-44
2022/04/12 07:01:42;;;;;;;;;49.75;38.75;;;;;;;;5044173;28;51091;-44
2022/04/12 07:04:26;;;;;;;;;45.75;36.25;;;;;;;;5043270;28;51655;-44
2022/04/12 07:07:12;;;;;;;;;49.50;39.25;;;;;;;;5061724;28;51149;-46
2022/04/12 07:09:56;;;;;;;;;56.00;45.25;;;;;;;;5047074;28;51037;-44
2022/04/12 07:13:03;;;;;;;;;77.50;68.50;;;;;;;;5052207;28;51073;-48
2022/04/12 07:15:51;;;;;;;;;63.00;51.00;;;;;;;;5044999;28;51092;-44
2022/04/12 07:18:50;;;;;;;;;59.00;45.00;;;;;;;;5040875;28;51712;-46
2022/04/12 07:21:35;;;;;;;;;77.50;72.50;;;;;;;;5054473;28;51194;-47
2022/04/12 07:24:21;;;;;;;;;61.00;47.25;;;;;;;;5054393;28;51372;-45
2022/04/12 07:27:06;;;;;;;;;58.75;46.00;;;;;;;;5061486;28;51184;-47
2022/04/12 07:29:56;;;;;;;;;57.75;46.00;;;;;;;;5061426;28;51593;-47
2022/04/12 07:32:46;;;;;;;;;54.50;43.00;;;;;;;;5059248;28;51010;-45
2022/04/12 07:35:31;;;;;;;;;70.25;53.75;;;;;;;;5053081;28;51024;-45
2022/04/12 07:38:21;;;;;;;;;52.50;39.75;;;;;;;;5061132;28;51544;-45
2022/04/12 07:41:09;;;;;;;;;53.75;41.75;;;;;;;;5048141;28;51289;-48
2022/04/12 07:44:01;;;;;;;;;46.75;38.75;;;;;;;;5040640;28;51087;-44
2022/04/12 07:46:48;;;;;;;;;45.50;36.50;;;;;;;;5059496;28;51169;-48
2022/04/12 07:49:45;;;;;;;;;45.25;36.50;;;;;;;;5061216;28;51145;-45
2022/04/12 07:52:51;;;;;;;;;37.00;32.00;;;;;;;;5061093;28;51097;-48
2022/04/12 07:55:35;;;;;;;;;20.75;18.75;;;;;;;;5061294;28;51513;-47
2022/04/12 07:58:22;;;;;;;;;18.50;16.75;;;;;;;;5060826;28;51130;-44
2022/04/12 08:01:11;;;;;;;;;26.25;20.75;;;;;;;;5061623;28;51350;-51
2022/04/12 08:03:56;;;;;;;;;25.25;22.75;;;;;;;;5060529;28;50979;-49
2022/04/12 08:06:45;;;;;;;;;21.75;20.25;;;;;;;;5060775;28;51121;-47
2022/04/12 08:09:32;;;;;;;;;26.25;19.50;;;;;;;;5045724;28;51165;-46
2022/04/12 08:12:21;;;;;;;;;22.00;19.25;;;;;;;;5045631;28;51113;-44
2022/04/12 08:15:14;;;;;;;;;27.00;24.25;;;;;;;;5039584;28;51139;-46
2022/04/12 08:17:59;;;;;;;;;24.25;19.00;;;;;;;;5046165;28;51061;-47
2022/04/12 08:21:01;;;;;;;;;18.50;14.75;;;;;;;;5056571;28;51092;-46
2022/04/12 08:23:47;;;;;;;;;28.00;26.75;;;;;;;;5060473;28;51086;-47
2022/04/12 08:26:35;;;;;;;;;29.75;27.25;;;;;;;;5060552;28;51002;-48
2022/04/12 08:29:20;;;;;;;;;19.25;18.75;;;;;;;;5060324;28;51466;-48
2022/04/12 08:32:16;;;;;;;;;21.75;17.50;;;;;;;;5058651;28;51091;-48
2022/04/12 08:35:07;;;;;;;;;16.00;9.50;;;;;;;;5050570;28;51076;-45
2022/04/12 08:37:55;;;;;;;;;8.50;7.25;;;;;;;;5040208;28;51048;-48
2022/04/12 08:40:59;;;;;;;;;12.00;7.25;;;;;;;;5039983;28;51416;-46
2022/04/12 08:43:45;;;;;;;;;10.75;10.75;;;;;;;;5039672;28;51105;-49
2022/04/12 08:46:35;;;;;;;;;15.00;15.00;;;;;;;;5039972;28;51343;-46
2022/04/12 08:49:47;;;;;;;;;17.50;12.50;;;;;;;;5051458;28;51118;-44
2022/04/12 08:52:33;;;;;;;;;9.25;6.25;;;;;;;;5040057;28;51079;-48
2022/04/12 08:55:20;;;;;;;;;10.25;8.00;;;;;;;;5045890;28;51590;-47
2022/04/12 08:58:04;;;;;;;;;8.75;5.00;;;;;;;;5059720;28;51046;-46
2022/04/12 09:00:50;;;;;;;;;7.25;5.75;;;;;;;;5059661;28;51236;-47
2022/04/12 09:03:49;;;;;;;;;8.75;7.75;;;;;;;;5059354;28;50989;-45
2022/04/12 09:06:34;;;;;;;;;10.50;8.50;;;;;;;;5059620;28;51424;-45
2022/04/12 09:09:20;;;;;;;;;9.25;6.75;;;;;;;;5059666;28;51197;-46
2022/04/12 09:12:05;;;;;;;;;5.25;5.00;;;;;;;;5046194;28;51347;-46
2022/04/12 09:14:57;;;;;;;;;9.75;8.00;;;;;;;;5059565;28;51059;-46
2022/04/12 09:17:48;;;;;;;;;4.75;3.50;;;;;;;;5060040;28;51145;-47
2022/04/12 09:20:35;;;;;;;;;7.00;4.25;;;;;;;;5059078;28;51373;-45
2022/04/12 09:23:23;;;;;;;;;9.00;6.00;;;;;;;;5059375;28;51377;-47
2022/04/12 09:26:16;;;;;;;;;7.50;6.00;;;;;;;;5051919;28;51394;-45
2022/04/12 09:29:00;;;;;;;;;4.75;3.50;;;;;;;;5039615;28;51113;-47
2022/04/12 09:31:47;;;;;;;;;8.50;7.00;;;;;;;;5039124;28;51534;-47
2022/04/12 09:34:42;;;;;;;;;13.50;8.75;;;;;;;;5045433;28;51098;-46
2022/04/12 09:37:33;;;;;;;;;20.75;17.75;;;;;;;;5059138;28;51512;-47
2022/04/12 09:40:28;;;;;;;;;20.25;16.50;;;;;;;;5055533;28;50994;-46
2022/04/12 09:43:15;;;;;;;;;11.00;9.75;;;;;;;;5059454;28;51270;-48
2022/04/12 09:46:05;;;;;;;;;9.75;6.75;;;;;;;;5059048;28;51358;-45
2022/04/12 09:49:00;;;;;;;;;7.75;5.00;;;;;;;;5059323;28;51166;-45
2022/04/12 09:51:48;;;;;;;;;9.25;7.25;;;;;;;;5039037;28;51021;-49
2022/04/12 09:54:35;;;;;;;;;6.25;5.50;;;;;;;;5044742;28;51046;-45
2022/04/12 09:57:21;;;;;;;;;3.50;1.50;;;;;;;;5058987;28;51384;-44
2022/04/12 10:00:29;;;;;;;;;6.00;4.25;;;;;;;;5059211;28;51186;-46
2022/04/12 10:03:16;;;;;;;;;8.25;4.00;;;;;;;;5051580;28;51020;-48
2022/04/12 10:06:07;;;;;;;;;7.50;4.50;;;;;;;;5038689;28;51027;-47
2022/04/12 10:08:54;;;;;;;;;3.25;1.50;;;;;;;;5038954;28;51150;-47
2022/04/12 10:11:50;;;;;;;;;2.50;2.50;;;;;;;;5038441;28;51386;-47
2022/04/12 10:14:37;;;;;;;;;4.00;4.00;;;;;;;;5044955;28;51378;-47
2022/04/12 10:17:25;;;;;;;;;4.00;3.00;;;;;;;;5042903;28;51506;-46
2022/04/12 10:20:10;;;;;;;;;1.50;1.50;;;;;;;;5060284;28;51026;-46
2022/04/12 10:23:00;;;;;;;;;6.00;5.75;;;;;;;;5044275;28;51630;-47
2022/04/12 10:26:05;;;;;;;;;6.00;4.00;;;;;;;;5053419;28;51197;-45
2022/04/12 10:29:15;;;;;;;;;8.25;4.00;;;;;;;;5044297;28;51358;-47
2022/04/12 10:32:02;;;;;;;;;3.25;2.75;;;;;;;;5062401;28;51036;-47
2022/04/12 10:35:05;;;;;;;;;2.75;2.75;;;;;;;;5054150;28;51046;-45
2022/04/12 10:37:56;;;;;;;;;2.00;2.00;;;;;;;;5042238;28;51533;-46
2022/04/12 10:40:48;;;;;;;;;4.25;3.75;;;;;;;;5053866;28;51543;-46
2022/04/12 10:43:41;;;;;;;;;2.75;2.75;;;;;;;;5047336;28;51065;-47
2022/04/12 10:46:56;;;;;;;;;3.50;2.50;;;;;;;;5062634;28;51056;-46
2022/04/12 10:49:42;;;;;;;;;1.75;1.75;;;;;;;;5062305;28;51471;-49
2022/04/12 10:52:37;;;;;;;;;4.00;4.00;;;;;;;;5062321;28;51106;-44
2022/04/12 10:55:27;;;;;;;;;3.75;3.50;;;;;;;;5042127;28;50968;-45
2022/04/12 10:58:28;;;;;;;;;3.25;3.25;;;;;;;;5044123;28;51218;-46
2022/04/12 11:01:27;;;;;;;;;4.75;4.75;;;;;;;;5062176;28;51179;-47
2022/04/12 11:04:16;;;;;;;;;10.00;6.25;;;;;;;;5061779;28;51529;-46
2022/04/12 11:07:01;;;;;;;;;7.00;7.00;;;;;;;;5061987;28;51132;-47
2022/04/12 11:10:05;;;;;;;;;5.00;3.25;;;;;;;;5061842;28;51113;-46
2022/04/12 11:13:03;;;;;;;;;8.00;6.50;;;;;;;;5058167;28;51124;-45
2022/04/12 11:15:54;;;;;;;;;6.25;5.00;;;;;;;;5056555;28;51113;-44
2022/04/12 11:18:48;;;;;;;;;2.25;2.25;;;;;;;;5056062;28;51169;-45
2022/04/12 11:21:54;;;;;;;;;4.50;3.50;;;;;;;;5041589;28;51355;-47
2022/04/12 11:24:43;;;;;;;;;4.50;3.75;;;;;;;;5041343;28;51134;-45
2022/04/12 11:27:29;;;;;;;;;3.75;3.25;;;;;;;;5041211;28;52042;-45
2022/04/12 11:30:14;;;;;;;;;3.50;2.75;;;;;;;;5041165;28;51201;-44
2022/04/12 11:33:00;;;;;;;;;6.75;5.25;;;;;;;;5041458;28;51177;-47
2022/04/12 11:35:45;;;;;;;;;9.00;7.00;;;;;;;;5045447;28;51069;-47
2022/04/12 11:38:34;;;;;;;;;4.00;4.00;;;;;;;;5055435;28;51152;-45
2022/04/12 11:41:18;;;;;;;;;6.00;6.00;;;;;;;;5040899;28;51414;-47
2022/04/12 11:44:05;;;;;;;;;7.50;4.25;;;;;;;;5039942;28;51145;-49
2022/04/12 11:46:57;;;;;;;;;4.00;4.00;;;;;;;;5041363;28;51267;-47
2022/04/12 11:49:42;;;;;;;;;7.75;4.00;;;;;;;;5040763;28;51066;-48
2022/04/12 11:52:27;;;;;;;;;3.75;2.00;;;;;;;;5040983;28;51074;-46
2022/04/12 11:55:28;;;;;;;;;7.25;3.50;;;;;;;;5047866;28;51483;-50
2022/04/12 11:58:15;;;;;;;;;7.00;3.75;;;;;;;;5046040;28;51069;-47
2022/04/12 12:00:59;;;;;;;;;5.50;3.25;;;;;;;;5053764;28;51077;-46
2022/04/12 12:03:51;;;;;;;;;3.50;2.75;;;;;;;;5061047;28;50984;-47
2022/04/12 12:06:52;;;;;;;;;5.00;4.75;;;;;;;;5060594;28;51093;-44
2022/04/12 12:09:40;;;;;;;;;9.00;4.25;;;;;;;;5060621;28;51126;-46
2022/04/12 12:12:42;;;;;;;;;6.00;4.00;;;;;;;;5059799;28;51146;-45
2022/04/12 12:15:46;;;;;;;;;5.75;2.00;;;;;;;;5053544;28;51144;-45
2022/04/12 12:18:41;;;;;;;;;7.25;6.00;;;;;;;;5044933;28;51121;-48
2022/04/12 12:21:29;;;;;;;;;6.00;5.00;;;;;;;;5056249;28;51583;-44
2022/04/12 12:24:15;;;;;;;;;4.75;3.00;;;;;;;;5053558;28;51462;-46
2022/04/12 12:27:03;;;;;;;;;6.00;3.00;;;;;;;;5057519;28;51192;-47
2022/04/12 12:30:00;;;;;;;;;7.50;3.50;;;;;;;;5040388;28;51085;-45
2022/04/12 12:32:49;;;;;;;;;4.75;2.50;;;;;;;;5040072;28;51482;-45
2022/04/12 12:35:41;;;;;;;;;4.75;2.25;;;;;;;;5059106;28;51170;-47
2022/04/12 12:38:38;;;;;;;;;3.50;1.75;;;;;;;;5060377;28;51137;-44
2022/04/12 12:41:27;;;;;;;;;3.75;2.00;;;;;;;;5043555;28;51137;-46
2022/04/12 12:44:16;;;;;;;;;3.00;1.50;;;;;;;;5039903;28;51087;-46
2022/04/12 12:47:03;;;;;;;;;2.25;1.50;;;;;;;;5052463;28;51096;-46
2022/04/12 12:49:50;;;;;;;;;1.75;1.75;;;;;;;;5040977;28;51415;-47
2022/04/12 12:52:35;;;;;;;;;5.00;2.00;;;;;;;;5056670;28;51069;-47
2022/04/12 12:55:27;;;;;;;;;6.25;2.25;;;;;;;;5047421;28;51549;-47
2022/04/12 12:58:14;;;;;;;;;2.75;2.75;;;;;;;;5059538;28;51539;-47
2022/04/12 13:01:06;;;;;;;;;3.50;2.50;;;;;;;;5040543;28;51169;-45
2022/04/12 13:04:17;;;;;;;;;4.00;3.00;;;;;;;;5053034;28;51360;-47
2022/04/12 13:07:16;;;;;;;;;3.75;2.00;;;;;;;;5059448;28;51105;-46
2022/04/12 13:10:10;;;;;;;;;5.00;1.75;;;;;;;;5057819;28;51116;-48
2022/04/12 13:12:55;;;;;;;;;3.50;2.75;;;;;;;;5059467;28;51136;-45
2022/04/12 13:15:39;;;;;;;;;4.75;3.00;;;;;;;;5045543;28;51161;-46
2022/04/12 13:18:28;;;;;;;;;2.00;2.00;;;;;;;;5039292;28;51082;-46
2022/04/12 13:21:18;;;;;;;;;3.50;2.75;;;;;;;;5039530;28;51138;-45
2022/04/12 13:24:02;;;;;;;;;1.75;1.75;;;;;;;;5038989;28;51379;-45
2022/04/12 13:26:47;;;;;;;;;1.75;1.00;;;;;;;;5039189;28;51155;-45
2022/04/12 13:29:34;;;;;;;;;5.00;3.00;;;;;;;;5052092;28;51157;-46
2022/04/12 13:32:20;;;;;;;;;2.25;2.25;;;;;;;;5039191;28;51134;-44
2022/04/12 13:35:08;;;;;;;;;4.50;2.25;;;;;;;;5039358;28;51091;-47
2022/04/12 13:37:53;;;;;;;;;4.25;3.00;;;;;;;;5038919;28;51433;-47
2022/04/12 13:40:38;;;;;;;;;4.25;2.50;;;;;;;;5057818;28;51523;-44
2022/04/12 13:43:35;;;;;;;;;5.75;3.00;;;;;;;;5058952;28;51341;-46
2022/04/12 13:46:21;;;;;;;;;2.75;2.75;;;;;;;;5059283;28;51045;-49
2022/04/12 13:49:13;;;;;;;;;5.25;4.25;;;;;;;;5058408;28;51236;-44
2022/04/12 13:52:03;;;;;;;;;6.00;3.00;;;;;;;;5059067;28;51399;-48
2022/04/12 13:54:59;;;;;;;;;6.50;4.25;;;;;;;;5049596;28;50975;-46
2022/04/12 13:57:45;;;;;;;;;3.75;3.50;;;;;;;;5047217;28;51026;-47
2022/04/12 14:00:42;;;;;;;;;6.25;3.00;;;;;;;;5039262;28;51067;-45
2022/04/12 14:03:27;;;;;;;;;4.00;3.50;;;;;;;;5038553;28;51126;-45
2022/04/12 14:06:14;;;;;;;;;6.25;4.25;;;;;;;;5039068;28;51330;-45
2022/04/12 14:08:59;;;;;;;;;5.25;3.75;;;;;;;;5057932;28;51996;-47
2022/04/12 14:11:46;;;;;;;;;3.75;3.75;;;;;;;;5059052;28;51197;-45
2022/04/12 14:14:32;;;;;;;;;8.75;5.00;;;;;;;;5058674;28;51494;-48
2022/04/12 14:17:20;;;;;;;;;4.50;4.50;;;;;;;;5047593;28;51041;-48
2022/04/12 14:20:05;;;;;;;;;7.25;3.00;;;;;;;;5043163;28;51126;-45
2022/04/12 14:23:00;;;;;;;;;7.00;5.00;;;;;;;;5038517;28;51092;-45
2022/04/12 14:25:56;;;;;;;;;6.25;5.50;;;;;;;;5040409;28;51298;-49
2022/04/12 14:28:52;;;;;;;;;10.00;5.00;;;;;;;;5058279;28;51525;-48
2022/04/12 14:31:57;;;;;;;;;9.25;4.50;;;;;;;;5058967;28;51327;-47
2022/04/12 14:34:42;;;;;;;;;8.75;6.25;;;;;;;;5049945;28;51063;-47
2022/04/12 14:37:28;;;;;;;;;8.75;5.25;;;;;;;;5042892;28;51133;-47
2022/04/12 14:40:14;;;;;;;;;5.50;4.50;;;;;;;;5042827;28;51181;-49
2022/04/12 14:43:10;;;;;;;;;6.00;4.50;;;;;;;;5038207;28;51122;-47
2022/04/12 14:45:56;;;;;;;;;5.00;5.00;;;;;;;;5053079;28;51417;-45
2022/04/12 14:48:42;;;;;;;;;6.25;5.00;;;;;;;;5058190;28;51148;-47
2022/04/12 14:51:27;;;;;;;;;7.50;4.50;;;;;;;;5047164;28;51142;-47
2022/04/12 14:54:11;;;;;;;;;3.00;3.00;;;;;;;;5040255;28;51162;-48
2022/04/12 14:57:04;;;;;;;;;7.50;3.25;;;;;;;;5058195;28;51015;-48
2022/04/12 14:59:49;;;;;;;;;4.25;2.00;;;;;;;;5046246;28;51077;-47
2022/04/12 15:02:33;;;;;;;;;6.25;4.00;;;;;;;;5061220;28;51038;-50
2022/04/12 15:05:19;;;;;;;;;8.00;2.25;;;;;;;;5059777;28;51165;-47
2022/04/12 15:08:04;;;;;;;;;3.25;2.25;;;;;;;;5047225;28;51021;-48
2022/04/12 15:10:48;;;;;;;;;2.50;1.50;;;;;;;;5049916;28;51010;-47
2022/04/12 15:13:33;;;;;;;;;4.50;3.00;;;;;;;;5040828;28;51230;-48
2022/04/12 15:16:17;;;;;;;;;4.00;2.75;;;;;;;;5057523;28;51135;-47
2022/04/12 15:19:03;;;;;;;;;2.75;2.00;;;;;;;;5041715;28;51099;-45
2022/04/12 15:21:47;;;;;;;;;2.75;1.50;;;;;;;;5041667;28;51432;-48
2022/04/12 15:24:33;;;;;;;;;1.75;1.75;;;;;;;;5041450;28;51271;-48
2022/04/12 15:27:20;;;;;;;;;2.75;2.75;;;;;;;;5041862;28;51071;-47
2022/04/12 15:30:10;;;;;;;;;1.50;1.50;;;;;;;;5041340;28;50955;-45
2022/04/12 15:32:54;;;;;;;;;3.00;2.00;;;;;;;;5041155;28;51028;-45
2022/04/12 15:35:41;;;;;;;;;5.75;1.75;;;;;;;;5041749;28;50980;-46
2022/04/12 15:49:14;;;;;;;;;2.75;1.00;;;;;;;;4148527;32;7222349;-45
2022/04/12 15:52:07;;;;;;;;;6.00;2.50;;;;;;;;5082669;27;51683;-47
2022/04/12 15:54:53;;;;;;;;;38.00;17.50;;;;;;;;5097072;27;51165;-43
2022/04/12 15:57:36;;;;;;;;;41.50;20.00;;;;;;;;5096850;27;51552;-48
2022/04/12 16:00:21;;;;;;;;;17.25;11.50;;;;;;;;5095197;27;51236;-45
2022/04/12 16:03:18;;;;;;;;;17.75;11.75;;;;;;;;5097198;27;51737;-44
2022/04/12 16:06:03;;;;;;;;;17.25;15.75;;;;;;;;5096437;27;51481;-45
2022/04/12 16:09:10;;;;;;;;;16.25;13.00;;;;;;;;5096429;27;51072;-47
2022/04/12 16:11:54;;;;;;;;;19.75;14.50;;;;;;;;5095734;27;51102;-44
2022/04/12 16:14:41;;;;;;;;;22.25;15.75;;;;;;;;5096625;27;51210;-45
2022/04/12 16:17:57;;;;;;;;;30.75;18.25;;;;;;;;5094786;27;51475;-45
2022/04/12 16:20:47;;;;;;;;;28.50;22.50;;;;;;;;5084724;27;51241;-46
2022/04/12 16:23:33;;;;;;;;;22.75;12.75;;;;;;;;5094975;27;51536;-45
2022/04/12 16:26:17;;;;;;;;;21.50;13.50;;;;;;;;5095426;27;51102;-44
2022/04/12 16:29:26;;;;;;;;;20.25;12.50;;;;;;;;5096179;27;51098;-42
2022/04/12 16:32:12;;;;;;;;;20.25;12.00;;;;;;;;5094598;27;51048;-45
2022/04/12 16:34:57;;;;;;;;;19.00;13.75;;;;;;;;5095841;27;51171;-44
2022/04/12 16:37:42;;;;;;;;;22.25;14.75;;;;;;;;5095862;27;51030;-44
2022/04/12 16:40:26;;;;;;;;;17.50;13.75;;;;;;;;5096335;27;50993;-46
2022/04/12 16:43:17;;;;;;;;;20.00;14.00;;;;;;;;5096034;27;51452;-45
2022/04/12 16:46:23;;;;;;;;;23.00;15.00;;;;;;;;5096246;27;51088;-46
2022/04/12 16:49:11;;;;;;;;;23.50;15.50;;;;;;;;5088451;27;51048;-47
2022/04/12 16:51:57;;;;;;;;;21.00;12.00;;;;;;;;5082097;27;51212;-46
2022/04/12 16:54:47;;;;;;;;;11.75;8.75;;;;;;;;5082531;27;51225;-47
2022/04/12 16:57:32;;;;;;;;;24.00;13.00;;;;;;;;5082219;27;51577;-45
2022/04/12 17:00:29;;;;;;;;;20.50;12.00;;;;;;;;5077270;27;51207;-44